»·PEaware :: N7357K KEUG-KOTH

N7357K :: KEUG-KOTH

FLIGHT INFORMATION

Flight Status: Arrived
Operator: Privately registered:
United States
More flights under this callsign
Pilot: Steve F. (18480)
Aircraft: BEECH AIRCRAFT BARON
(BE58)
More flights by this aircraft type
Origin: KEUG Mahlon Sweet
United States
Destination: KOTH North Bend Mun
United States
More flights between these airports :: More routes between these airports
Route: +EUG V121 OTH
File this flight plan on PilotEdge
Remarks:
Altitude:
(Current/Filed)
5,000ft
Speed:
(Current/Filed)
180kts
Departed: 19-Jun-18 06:53 PM
Arrived: 19-Jun-18 07:28 PM
Distance/Time
Traveled:
61nm/0:35
Distance/Time
To Go:
Arrived

Flight Plot

Page will automatically refresh every two minutes.

Flight plan parsing failed; only flown route is shown


Map Options




Map Legend


Flown Route
Filed Route
Departure Airport
Arrival Airport
Navaid (VOR, NDB)
Fix

Horizontal Profiles

Position Reports

Time Latitude Longitude Heading Altitude Ground
Speed
19-Jun-18 18:39 44.115139 -123.215522 1 365ft 0kts
19-Jun-18 18:40 44.115139 -123.215522 1 365ft 0kts
19-Jun-18 18:41 44.115139 -123.215522 1 365ft 0kts
19-Jun-18 18:42 44.115139 -123.215522 1 365ft 0kts
19-Jun-18 18:43 44.115139 -123.215522 1 365ft 0kts
19-Jun-18 18:44 44.115139 -123.215522 1 365ft 0kts
19-Jun-18 18:45 44.115139 -123.215522 1 365ft 0kts
19-Jun-18 18:46 44.115139 -123.215522 1 365ft 0kts
19-Jun-18 18:47 44.115139 -123.215522 1 365ft 0kts
19-Jun-18 18:48 44.114919 -123.216932 175 364ft 20kts
19-Jun-18 18:49 44.113588 -123.217327 311 364ft 0kts
19-Jun-18 18:50 44.113588 -123.217327 311 364ft 0kts
19-Jun-18 18:51 44.113588 -123.217327 311 364ft 0kts
19-Jun-18 18:52 44.113588 -123.217327 311 364ft 0kts
19-Jun-18 18:53 44.129558 -123.218333 6 799ft 113kts
19-Jun-18 18:54 44.166525 -123.217035 5 2333ft 118kts
19-Jun-18 18:55 44.200485 -123.224467 355 3287ft 128kts
19-Jun-18 18:56 44.212506 -123.254709 239 4233ft 140kts
19-Jun-18 18:57 44.176451 -123.282130 199 5084ft 170kts
19-Jun-18 18:58 44.131804 -123.311707 203 5119ft 187kts
19-Jun-18 18:59 44.084239 -123.345991 210 4971ft 187kts
19-Jun-18 19:00 44.041764 -123.389106 210 4962ft 189kts
19-Jun-18 19:01 43.996162 -123.424379 204 4963ft 188kts
19-Jun-18 19:02 43.949088 -123.456300 204 4963ft 188kts
19-Jun-18 19:03 43.907239 -123.500071 222 4964ft 190kts
19-Jun-18 19:04 43.865235 -123.542703 208 4963ft 188kts
19-Jun-18 19:05 43.826938 -123.591715 226 4962ft 190kts
19-Jun-18 19:06 43.790775 -123.645475 229 4978ft 189kts
19-Jun-18 19:07 43.755924 -123.696510 228 4991ft 178kts
19-Jun-18 19:08 43.722257 -123.745775 227 4916ft 180kts
19-Jun-18 19:09 43.688312 -123.795305 227 4908ft 175kts
19-Jun-18 19:10 43.655599 -123.843723 229 5294ft 161kts
19-Jun-18 19:11 43.625198 -123.889171 226 5946ft 162kts
19-Jun-18 19:12 43.592479 -123.935936 226 6079ft 172kts
19-Jun-18 19:13 43.556315 -123.981331 224 6064ft 180kts
19-Jun-18 19:14 43.520762 -124.030523 225 5951ft 180kts
19-Jun-18 19:15 43.485045 -124.077571 226 6056ft 177kts
19-Jun-18 19:16 43.448687 -124.123597 225 6023ft 180kts
19-Jun-18 19:17 43.414311 -124.174866 232 5862ft 183kts
19-Jun-18 19:18 43.380262 -124.224255 229 6039ft 173kts
19-Jun-18 19:19 43.348153 -124.276030 227 4899ft 178kts
19-Jun-18 19:20 43.318337 -124.329339 240 3721ft 175kts
19-Jun-18 19:21 43.290832 -124.381956 236 3115ft 156kts
19-Jun-18 19:22 43.304042 -124.417979 329 3062ft 129kts
19-Jun-18 19:23 43.335330 -124.433008 35 2939ft 138kts
19-Jun-18 19:24 43.360605 -124.395363 43 3039ft 140kts
19-Jun-18 19:25 43.373786 -124.348763 64 1439ft 135kts
19-Jun-18 19:26 43.393664 -124.311725 55 361ft 108kts
19-Jun-18 19:27 43.410094 -124.272111 61 251ft 113kts
19-Jun-18 19:28 43.420197 -124.247036 49 10ft 0kts
19-Jun-18 19:29 43.420636 -124.243131 252 6ft 13kts
19-Jun-18 19:30 43.417882 -124.246329 214 18ft 13kts

Navigation Log

Ident Type
Flight plan parsing failed, navigation log unavailable